createdAt,value
2018-09-18T00:00:56.083Z,66.70
2018-09-18T00:01:56.063Z,66.50
2018-09-18T00:02:56.201Z,66.30
2018-09-18T00:03:56.568Z,66.40
2018-09-18T00:04:56.028Z,66.50
2018-09-18T00:05:56.015Z,66.19
2018-09-18T00:06:56.009Z,66.50
2018-09-18T00:07:56.045Z,66.50
2018-09-18T00:08:55.992Z,66.91
2018-09-18T00:09:56.231Z,66.63
2018-09-18T00:10:55.959Z,66.63
2018-09-18T00:11:55.951Z,66.94
2018-09-18T00:12:56.706Z,67.41
2018-09-18T00:13:55.930Z,67.31
2018-09-18T00:14:56.033Z,67.03
2018-09-18T00:15:55.905Z,66.91
2018-09-18T00:16:55.894Z,65.99
2018-09-18T00:17:56.146Z,66.43
2018-09-18T00:18:56.011Z,66.63
2018-09-18T00:19:55.866Z,66.94
2018-09-18T00:20:55.850Z,67.44
2018-09-18T00:21:56.160Z,67.44
2018-09-18T00:22:55.829Z,66.83
2018-09-18T00:23:55.828Z,66.83
2018-09-18T00:24:55.808Z,67.51
2018-09-18T00:25:55.795Z,67.24
2018-09-18T00:26:55.889Z,67.41
2018-09-18T00:27:55.776Z,67.44
2018-09-18T00:28:55.762Z,67.31
2018-09-18T00:29:55.754Z,66.80
2018-09-18T00:30:56.109Z,67.41
2018-09-18T00:31:55.729Z,67.41
2018-09-18T00:32:55.987Z,67.65
2018-09-18T00:33:55.709Z,67.82
2018-09-18T00:34:55.706Z,67.75
2018-09-18T00:35:55.686Z,67.85
2018-09-18T00:36:55.674Z,67.85
2018-09-18T00:37:55.665Z,67.61
2018-09-18T00:38:55.666Z,67.65
2018-09-18T00:39:55.648Z,68.35
2018-09-18T00:40:55.648Z,68.46
2018-09-18T00:41:55.618Z,67.75
2018-09-18T00:42:55.610Z,67.72
2018-09-18T00:43:55.609Z,68.02
2018-09-18T00:44:55.710Z,67.95
2018-09-18T00:45:55.590Z,67.65
2018-09-18T00:46:55.606Z,67.75
2018-09-18T00:47:55.555Z,67.34
2018-09-18T00:48:55.558Z,67.34
2018-09-18T00:49:55.552Z,68.56
2018-09-18T00:50:55.520Z,68.26
2018-09-18T00:51:55.513Z,68.26
2018-09-18T00:52:55.503Z,67.44
2018-09-18T00:53:55.608Z,68.35
2018-09-18T00:54:55.744Z,67.75
2018-09-18T00:55:55.476Z,67.65
2018-09-18T00:56:55.465Z,67.51
2018-09-18T00:57:55.449Z,68.46
2018-09-18T00:58:55.433Z,68.46
2018-09-18T00:59:55.428Z,67.55
2018-09-18T01:00:55.429Z,67.44
2018-09-18T01:01:55.404Z,68.46
2018-09-18T01:02:55.385Z,67.44
2018-09-18T01:03:55.389Z,68.26
2018-09-18T01:04:55.367Z,67.61
2018-09-18T01:05:55.493Z,68.26
2018-09-18T01:06:56.114Z,67.72
2018-09-18T01:07:55.338Z,67.55
2018-09-18T01:08:55.327Z,67.61
2018-09-18T01:09:55.576Z,67.82
2018-09-18T01:10:55.307Z,67.92
2018-09-18T01:11:55.291Z,67.51
2018-09-18T01:12:55.278Z,66.91
2018-09-18T01:13:55.271Z,67.41
2018-09-18T01:14:55.258Z,67.51
2018-09-18T01:15:55.258Z,67.61
2018-09-18T01:16:55.499Z,67.28
2018-09-18T01:17:55.239Z,67.28
2018-09-18T01:18:55.217Z,67.28
2018-09-18T01:19:55.202Z,66.77
2018-09-18T01:20:55.188Z,67.28
2018-09-18T01:21:55.454Z,66.77
2018-09-18T01:22:55.173Z,67.38
2018-09-18T01:23:55.521Z,66.97
2018-09-18T01:24:55.148Z,66.47
2018-09-18T01:25:55.136Z,66.88
2018-09-18T01:26:55.127Z,66.77
2018-09-18T01:27:55.118Z,66.57
2018-09-18T01:28:55.141Z,67.28
2018-09-18T01:29:55.107Z,66.74
2018-09-18T01:30:55.083Z,66.13
2018-09-18T01:31:55.071Z,66.24
2018-09-18T01:32:55.061Z,66.33
2018-09-18T01:33:55.051Z,66.03
2018-09-18T01:34:55.091Z,66.44
2018-09-18T01:35:55.026Z,66.74
2018-09-18T01:36:55.018Z,66.03
2018-09-18T01:37:55.265Z,66.03
2018-09-18T01:38:54.992Z,66.74
2018-09-18T01:39:54.985Z,66.03
2018-09-18T01:40:55.077Z,66.94
2018-09-18T01:41:54.965Z,66.44
2018-09-18T01:42:55.212Z,65.96
2018-09-18T01:43:55.001Z,66.77
2018-09-18T01:44:54.929Z,66.47
2018-09-18T01:45:55.175Z,66.64
2018-09-18T01:46:54.931Z,66.57
2018-09-18T01:47:54.894Z,66.84
2018-09-18T01:48:54.883Z,66.74
2018-09-18T01:49:54.878Z,65.93
2018-09-18T01:50:54.858Z,66.94
2018-09-18T01:51:55.225Z,66.94
2018-09-18T01:52:54.838Z,66.54
2018-09-18T01:53:54.826Z,66.74
2018-09-18T01:54:55.086Z,66.13
2018-09-18T01:55:54.807Z,65.93
2018-09-18T01:56:54.793Z,66.94
2018-09-18T01:57:54.788Z,66.16
2018-09-18T01:58:55.039Z,66.37
2018-09-18T01:59:55.055Z,66.37
2018-09-18T02:00:54.766Z,67.00
2018-09-18T02:01:54.742Z,66.70
2018-09-18T02:02:54.727Z,67.61
2018-09-18T02:03:55.893Z,67.61
2018-09-18T02:04:54.721Z,67.65
2018-09-18T02:05:54.715Z,68.26
2018-09-18T02:06:54.805Z,67.44
2018-09-18T02:07:54.676Z,68.35
2018-09-18T02:08:54.663Z,68.05
2018-09-18T02:09:54.654Z,68.26
2018-09-18T02:10:54.913Z,68.19
2018-09-18T02:11:54.630Z,68.59
2018-09-18T02:12:54.899Z,68.70
2018-09-18T02:13:54.610Z,68.35
2018-09-18T02:14:54.598Z,68.59
2018-09-18T02:15:54.591Z,68.70
2018-09-18T02:16:54.577Z,68.70
2018-09-18T02:17:54.565Z,68.59
2018-09-18T02:18:54.832Z,68.59
2018-09-18T02:19:54.545Z,68.59
2018-09-18T02:20:54.535Z,68.90
2018-09-18T02:21:54.524Z,69.20
2018-09-18T02:22:54.509Z,69.30
2018-09-18T02:23:54.500Z,69.30
2018-09-18T02:24:54.756Z,69.34
2018-09-18T02:25:54.496Z,69.60
2018-09-18T02:26:54.545Z,70.35
2018-09-18T02:27:54.455Z,69.20
2018-09-18T02:28:54.444Z,69.20
2018-09-18T02:29:54.435Z,69.00
2018-09-18T02:30:54.426Z,69.20
2018-09-18T02:31:54.422Z,69.20
2018-09-18T02:32:54.398Z,68.59
2018-09-18T02:33:54.387Z,68.49
2018-09-18T02:34:54.378Z,68.90
2018-09-18T02:35:54.370Z,68.90
2018-09-18T02:36:54.356Z,68.79
2018-09-18T02:37:54.343Z,69.00
2018-09-18T02:38:54.338Z,68.79
2018-09-18T02:39:54.349Z,69.00
2018-09-18T02:40:54.314Z,68.70
2018-09-18T02:41:54.305Z,68.90
2018-09-18T02:42:54.308Z,68.70
2018-09-18T02:43:54.283Z,68.46
2018-09-18T02:44:54.273Z,68.87
2018-09-18T02:45:54.518Z,68.59
2018-09-18T02:46:54.247Z,68.79
2018-09-18T02:47:54.240Z,68.70
2018-09-18T02:48:54.227Z,69.07
2018-09-18T02:49:54.240Z,68.79
2018-09-18T02:50:54.207Z,68.79
2018-09-18T02:51:54.195Z,68.90
2018-09-18T02:52:54.183Z,69.10
2018-09-18T02:53:54.435Z,69.20
2018-09-18T02:54:54.278Z,68.59
2018-09-18T02:55:54.150Z,68.59
2018-09-18T02:56:54.136Z,68.93
2018-09-18T02:57:54.232Z,68.52
2018-09-18T02:58:54.119Z,69.23
2018-09-18T02:59:54.125Z,69.54
2018-09-18T03:00:54.097Z,70.25
2018-09-18T03:01:54.349Z,70.15
2018-09-18T03:02:54.109Z,70.38
2018-09-18T03:03:54.060Z,70.38
2018-09-18T03:04:54.052Z,71.12
2018-09-18T03:05:54.042Z,71.12
2018-09-18T03:06:54.039Z,71.64
2018-09-18T03:07:54.017Z,71.64
2018-09-18T03:08:54.010Z,71.43
2018-09-18T03:09:54.002Z,71.73
2018-09-18T03:10:53.990Z,71.47
2018-09-18T03:11:53.974Z,71.67
2018-09-18T03:12:53.975Z,71.73
2018-09-18T03:13:54.208Z,71.87
2018-09-18T03:14:54.213Z,71.87
2018-09-18T03:15:53.931Z,72.38
2018-09-18T03:16:53.925Z,72.69
2018-09-18T03:17:53.909Z,72.78
2018-09-18T03:18:53.981Z,72.99
2018-09-18T03:19:54.207Z,72.99
2018-09-18T03:20:53.988Z,73.30
2018-09-18T03:21:53.890Z,73.50
2018-09-18T03:22:53.851Z,73.50
2018-09-18T03:23:54.228Z,73.30
2018-09-18T03:24:53.832Z,73.19
2018-09-18T03:25:53.835Z,73.39
2018-09-18T03:26:54.498Z,73.50
2018-09-18T03:27:53.802Z,72.78
2018-09-18T03:28:53.829Z,73.30
2018-09-18T03:29:53.778Z,73.09
2018-09-18T03:30:53.768Z,72.69
2018-09-18T03:31:53.759Z,72.38
2018-09-18T03:32:54.069Z,72.08
2018-09-18T03:33:53.731Z,72.04
2018-09-18T03:34:53.987Z,72.17
2018-09-18T03:35:53.712Z,72.58
2018-09-18T03:36:53.762Z,72.38
2018-09-18T03:37:55.517Z,71.97
2018-09-18T03:38:53.694Z,72.28
2018-09-18T03:39:53.667Z,72.17
2018-09-18T03:40:53.658Z,72.48
2018-09-18T03:41:53.650Z,72.58
2018-09-18T03:42:53.904Z,71.97
2018-09-18T03:43:53.625Z,72.69
2018-09-18T03:44:53.625Z,72.69
2018-09-18T03:45:53.607Z,72.58
2018-09-18T03:46:53.691Z,72.48
2018-09-18T03:47:53.583Z,72.55
2018-09-18T03:48:53.571Z,72.04
2018-09-18T03:49:53.560Z,72.55
2018-09-18T03:50:53.564Z,71.94
2018-09-18T03:51:53.542Z,71.84
2018-09-18T03:52:53.527Z,72.38
2018-09-18T03:53:53.546Z,72.14
2018-09-18T03:54:53.508Z,72.34
2018-09-18T03:55:53.494Z,72.25
2018-09-18T03:56:53.759Z,72.04
2018-09-18T03:57:53.473Z,71.84
2018-09-18T03:58:53.462Z,71.67
2018-09-18T03:59:53.478Z,72.58
2018-09-18T04:00:53.438Z,72.28
2018-09-18T04:01:53.429Z,72.28
2018-09-18T04:02:53.501Z,72.38
2018-09-18T04:03:53.407Z,72.34
2018-09-18T04:04:53.406Z,72.58
2018-09-18T04:05:53.551Z,72.89
2018-09-18T04:06:53.396Z,72.78
2018-09-18T04:07:53.362Z,72.99
2018-09-18T04:08:53.350Z,73.70
2018-09-18T04:09:53.342Z,73.39
2018-09-18T04:10:53.349Z,73.30
2018-09-18T04:11:53.338Z,73.30
2018-09-18T04:12:53.576Z,73.19
2018-09-18T04:13:53.299Z,72.78
2018-09-18T04:14:53.284Z,73.43
2018-09-18T04:15:53.276Z,73.13
2018-09-18T04:16:53.271Z,73.19
2018-09-18T04:17:53.252Z,73.30
2018-09-18T04:18:53.257Z,73.70
2018-09-18T04:19:53.258Z,73.60
2018-09-18T04:20:53.488Z,73.70
2018-09-18T04:21:53.216Z,73.43
2018-09-18T04:22:53.467Z,73.39
2018-09-18T04:23:53.185Z,73.50
2018-09-18T04:24:53.178Z,72.78
2018-09-18T04:25:53.180Z,73.19
2018-09-18T04:26:53.431Z,73.13
2018-09-18T04:27:53.145Z,73.30
2018-09-18T04:28:53.146Z,72.89
2018-09-18T04:29:53.130Z,73.39
2018-09-18T04:30:53.118Z,73.43
2018-09-18T04:31:53.119Z,73.39
2018-09-18T04:32:53.090Z,73.80
2018-09-18T04:33:53.282Z,73.33
2018-09-18T04:34:53.101Z,73.60
2018-09-18T04:35:53.058Z,73.84
2018-09-18T04:36:53.045Z,73.91
2018-09-18T04:37:53.030Z,73.70
2018-09-18T04:38:53.045Z,73.84
2018-09-18T04:39:53.012Z,73.74
2018-09-18T04:40:53.274Z,73.70
2018-09-18T04:41:53.260Z,73.39
2018-09-18T04:42:52.989Z,73.84
2018-09-18T04:43:52.973Z,73.60
2018-09-18T04:44:53.081Z,73.70
2018-09-18T04:45:53.004Z,73.39
2018-09-18T04:46:52.953Z,73.30
2018-09-18T04:47:53.189Z,73.60
2018-09-18T04:48:53.184Z,73.19
2018-09-18T04:49:52.906Z,73.70
2018-09-18T04:50:53.157Z,73.30
2018-09-18T04:51:52.888Z,73.50
2018-09-18T04:52:52.867Z,73.39
2018-09-18T04:53:54.314Z,73.39
2018-09-18T04:54:52.910Z,73.30
2018-09-18T04:55:53.108Z,73.39
2018-09-18T04:56:52.843Z,73.39
2018-09-18T04:57:52.832Z,73.39
2018-09-18T04:58:52.803Z,73.19
2018-09-18T04:59:52.796Z,73.09
2018-09-18T05:00:52.785Z,73.19
2018-09-18T05:01:52.827Z,73.16
2018-09-18T05:02:52.763Z,73.26
2018-09-18T05:03:53.033Z,73.30
2018-09-18T05:04:52.744Z,73.36
2018-09-18T05:05:52.732Z,72.65
2018-09-18T05:06:52.722Z,72.65
2018-09-18T05:07:52.713Z,72.65
2018-09-18T05:08:52.699Z,72.65
2018-09-18T05:09:52.702Z,72.34
2018-09-18T05:10:53.077Z,72.45
2018-09-18T05:11:52.665Z,71.64
2018-09-18T05:12:52.657Z,71.84
2018-09-18T05:13:52.677Z,71.94
2018-09-18T05:14:52.657Z,72.01
2018-09-18T05:15:52.634Z,72.11
2018-09-18T05:16:52.612Z,72.34
2018-09-18T05:17:52.601Z,72.01
2018-09-18T05:18:52.590Z,72.01
2018-09-18T05:19:52.599Z,71.50
2018-09-18T05:20:52.562Z,72.01
2018-09-18T05:21:53.109Z,72.01
2018-09-18T05:22:53.072Z,71.70
2018-09-18T05:23:52.588Z,71.91
2018-09-18T05:24:52.522Z,71.50
2018-09-18T05:25:52.781Z,71.60
2018-09-18T05:26:53.504Z,71.60
2018-09-18T05:27:52.497Z,71.20
2018-09-18T05:28:52.477Z,71.60
2018-09-18T05:29:52.734Z,71.47
2018-09-18T05:30:52.458Z,71.06
2018-09-18T05:31:52.443Z,71.67
2018-09-18T05:32:52.467Z,71.47
2018-09-18T05:33:52.427Z,71.16
2018-09-18T05:34:52.688Z,70.76
2018-09-18T05:35:52.413Z,71.16
2018-09-18T05:36:52.474Z,70.45
2018-09-18T05:37:52.397Z,70.42
2018-09-18T05:38:52.386Z,70.52
2018-09-18T05:39:52.470Z,70.21
2018-09-18T05:40:52.624Z,70.21
2018-09-18T05:41:52.367Z,70.42
2018-09-18T05:42:52.347Z,70.21
2018-09-18T05:43:52.320Z,70.18
2018-09-18T05:44:52.317Z,70.18
2018-09-18T05:45:52.309Z,69.57
2018-09-18T05:46:52.282Z,68.83
2018-09-18T05:47:52.545Z,68.16
2018-09-18T05:48:52.540Z,66.41
2018-09-18T05:49:52.257Z,65.33
2018-09-18T05:50:52.504Z,64.39
2018-09-18T05:51:52.632Z,63.35
2018-09-18T05:52:52.226Z,62.71
2018-09-18T05:53:52.205Z,62.64
2018-09-18T05:54:52.401Z,62.85
2018-09-18T05:55:52.184Z,63.58
2018-09-18T05:56:52.436Z,63.78
2018-09-18T05:57:52.430Z,64.02
2018-09-18T05:58:52.165Z,64.42
2018-09-18T05:59:52.154Z,64.52
2018-09-18T06:00:52.127Z,64.52
2018-09-18T06:01:52.192Z,64.62
2018-09-18T06:02:52.373Z,64.83
2018-09-18T06:03:52.365Z,65.13
2018-09-18T06:04:52.105Z,64.93
2018-09-18T06:05:52.080Z,64.73
2018-09-18T06:06:52.194Z,64.83
2018-09-18T06:07:52.051Z,64.83
2018-09-18T06:08:52.171Z,65.03
2018-09-18T06:09:52.037Z,64.83
2018-09-18T06:10:52.021Z,65.03
2018-09-18T06:11:52.431Z,64.83
2018-09-18T06:12:51.998Z,65.13
2018-09-18T06:13:52.258Z,65.43
2018-09-18T06:14:53.281Z,65.00
2018-09-18T06:16:03.316Z,64.79
2018-09-18T06:16:52.504Z,64.59
2018-09-18T06:17:52.218Z,64.29
2018-09-18T06:18:51.995Z,64.19
2018-09-18T06:19:51.923Z,64.49
2018-09-18T06:20:51.907Z,64.19
2018-09-18T06:21:51.905Z,64.19
2018-09-18T06:22:51.912Z,63.85
2018-09-18T06:23:51.908Z,63.85
2018-09-18T06:24:51.886Z,63.76
2018-09-18T06:25:51.850Z,63.15
2018-09-18T06:26:51.849Z,63.62
2018-09-18T06:27:51.834Z,63.22
2018-09-18T06:28:51.821Z,63.32
2018-09-18T06:29:52.354Z,62.82
2018-09-18T06:30:51.798Z,62.92
2018-09-18T06:31:51.797Z,62.82
2018-09-18T06:32:51.777Z,62.92
2018-09-18T06:33:51.770Z,62.68
2018-09-18T06:34:51.764Z,62.79
2018-09-18T06:35:51.765Z,62.68
2018-09-18T06:36:52.126Z,62.59
2018-09-18T06:37:51.980Z,62.79
2018-09-18T06:38:51.759Z,62.88
2018-09-18T06:39:51.725Z,62.59
2018-09-18T06:40:51.701Z,62.59
2018-09-18T06:41:51.708Z,62.79
2018-09-18T06:42:52.220Z,62.76
2018-09-18T06:43:52.064Z,62.65
2018-09-18T06:44:51.653Z,62.45
2018-09-18T06:45:52.014Z,62.35
2018-09-18T06:46:51.646Z,62.05
2018-09-18T06:47:51.816Z,61.82
2018-09-18T06:48:51.742Z,61.61
2018-09-18T06:49:51.593Z,61.32
2018-09-18T06:50:51.578Z,60.71
2018-09-18T06:51:51.847Z,60.38
2018-09-18T06:52:51.710Z,60.91
2018-09-18T06:53:51.558Z,60.98
2018-09-18T06:54:51.544Z,60.58
2018-09-18T06:55:51.532Z,60.88
2018-09-18T06:56:51.796Z,60.88
2018-09-18T06:57:51.580Z,60.55
2018-09-18T06:58:51.506Z,60.35
2018-09-18T06:59:51.534Z,60.05
2018-09-18T07:00:51.489Z,60.15
2018-09-18T07:01:51.469Z,60.25
2018-09-18T07:02:51.448Z,60.32
2018-09-18T07:03:51.453Z,59.55
2018-09-18T07:04:51.447Z,60.02
2018-09-18T07:05:51.418Z,59.92
2018-09-18T07:06:51.685Z,60.42
2018-09-18T07:07:51.397Z,60.22
2018-09-18T07:08:51.657Z,59.62
2018-09-18T07:09:51.376Z,59.42
2018-09-18T07:10:51.639Z,58.98
2018-09-18T07:11:51.352Z,59.39
2018-09-18T07:12:51.686Z,58.88
2018-09-18T07:13:51.345Z,59.08
2018-09-18T07:14:51.326Z,58.86
2018-09-18T07:15:51.404Z,59.36
2018-09-18T07:16:51.331Z,59.36
2018-09-18T07:17:51.679Z,58.65
2018-09-18T07:18:51.543Z,58.12
2018-09-18T07:19:51.533Z,58.73
2018-09-18T07:20:51.257Z,58.33
2018-09-18T07:21:51.269Z,58.12
2018-09-18T07:22:51.240Z,57.62
2018-09-18T07:23:51.485Z,58.12
2018-09-18T07:24:51.536Z,58.40
2018-09-18T07:25:51.200Z,58.60
2018-09-18T07:26:51.553Z,58.20
2018-09-18T07:27:51.300Z,57.79
2018-09-18T07:28:51.175Z,57.70
2018-09-18T07:29:51.166Z,57.79
2018-09-18T07:30:51.144Z,57.50
2018-09-18T07:31:51.387Z,57.26
2018-09-18T07:32:51.127Z,57.79
2018-09-18T07:33:54.481Z,57.37
2018-09-18T07:34:51.109Z,57.06
2018-09-18T07:35:51.093Z,56.96
2018-09-18T07:36:51.455Z,57.46
2018-09-18T07:38:59.966Z,57.57
2018-09-18T07:40:00.952Z,56.66
2018-09-18T07:41:01.016Z,57.17
2018-09-18T07:42:00.934Z,57.44
2018-09-18T07:43:00.926Z,57.44
2018-09-18T07:44:00.919Z,56.74
2018-09-18T07:45:00.902Z,57.54
2018-09-18T07:46:00.880Z,57.31
2018-09-18T07:47:00.950Z,56.81
2018-09-18T07:48:00.889Z,56.93
2018-09-18T07:49:00.859Z,57.01
2018-09-18T07:50:01.111Z,57.04
2018-09-18T07:51:00.816Z,56.71
2018-09-18T07:52:00.883Z,57.11
2018-09-18T07:53:00.824Z,56.71
2018-09-18T07:54:00.786Z,56.88
2018-09-18T07:55:00.784Z,57.08
2018-09-18T07:56:01.043Z,56.88
2018-09-18T07:57:00.752Z,56.98
2018-09-18T07:58:00.758Z,56.45
2018-09-18T07:59:01.009Z,56.35
2018-09-18T08:00:00.735Z,55.75
2018-09-18T08:01:00.718Z,56.76
2018-09-18T08:02:00.700Z,56.15
2018-09-18T08:03:00.715Z,56.05
2018-09-18T08:04:00.952Z,55.55
2018-09-18T08:05:00.944Z,55.63
2018-09-18T08:06:01.005Z,55.22
2018-09-18T08:07:00.671Z,55.22
2018-09-18T08:08:00.645Z,55.02
2018-09-18T08:09:00.627Z,55.00
2018-09-18T08:10:00.615Z,54.50
2018-09-18T08:11:00.722Z,54.39
2018-09-18T08:12:00.610Z,54.30
2018-09-18T08:13:00.668Z,54.50
2018-09-18T08:14:00.851Z,54.70
2018-09-18T08:15:00.617Z,54.10
2018-09-18T08:16:00.851Z,54.10
2018-09-18T08:17:00.935Z,54.27
2018-09-18T08:18:00.685Z,54.57
2018-09-18T08:19:00.660Z,54.17
2018-09-18T08:20:00.507Z,54.37
2018-09-18T08:21:00.490Z,53.97
2018-09-18T08:22:00.488Z,53.44
2018-09-18T08:23:00.490Z,53.85
2018-09-18T08:24:00.456Z,53.14
2018-09-18T08:25:00.714Z,53.24
2018-09-18T08:26:00.444Z,53.92
2018-09-18T08:27:00.427Z,53.42
2018-09-18T08:28:00.421Z,53.82
2018-09-18T08:29:00.415Z,53.32
2018-09-18T08:30:00.426Z,54.02
2018-09-18T08:31:00.656Z,53.32
2018-09-18T08:32:00.370Z,53.62
2018-09-18T08:33:00.451Z,53.02
2018-09-18T08:34:00.633Z,52.32
2018-09-18T08:35:00.357Z,52.62
2018-09-18T08:36:00.448Z,52.49
2018-09-18T08:37:00.723Z,53.30
2018-09-18T08:38:00.326Z,52.57
2018-09-18T08:39:00.322Z,52.27
2018-09-18T08:40:00.910Z,52.37
2018-09-18T08:41:00.299Z,52.34
2018-09-18T08:42:00.273Z,51.45
2018-09-18T08:43:03.519Z,51.75
2018-09-18T08:44:00.275Z,51.62
2018-09-18T08:45:00.565Z,51.45
2018-09-18T08:46:00.267Z,51.62
2018-09-18T08:47:00.214Z,51.72
2018-09-18T08:48:00.221Z,50.95
2018-09-18T08:49:00.541Z,51.12
2018-09-18T08:50:01.342Z,51.52
2018-09-18T08:51:00.175Z,50.62
2018-09-18T08:52:00.254Z,50.30
2018-09-18T08:53:00.411Z,50.40
2018-09-18T08:54:00.158Z,50.72
2018-09-18T08:55:00.519Z,50.99
2018-09-18T08:56:00.195Z,51.40
2018-09-18T08:57:00.389Z,50.90
2018-09-18T08:58:00.109Z,50.60
2018-09-18T08:59:00.355Z,50.27
2018-09-18T09:00:00.341Z,50.77
2018-09-18T09:01:00.077Z,50.67
2018-09-18T09:02:00.322Z,50.27
2018-09-18T09:03:00.036Z,50.15
2018-09-18T09:04:01.124Z,49.33
2018-09-18T09:05:00.051Z,49.93
2018-09-18T09:06:00.285Z,49.13
2018-09-18T09:07:00.003Z,48.91
2018-09-18T09:08:00.183Z,49.23
2018-09-18T09:09:00.005Z,49.01
2018-09-18T09:09:59.979Z,49.01
2018-09-18T09:10:59.962Z,48.91
2018-09-18T09:12:00.296Z,49.10
2018-09-18T09:12:59.926Z,48.31
2018-09-18T09:14:00.091Z,48.11
2018-09-18T09:15:00.180Z,48.21
2018-09-18T09:15:59.918Z,48.19
2018-09-18T09:16:59.899Z,48.68
2018-09-18T09:17:59.966Z,48.88
2018-09-18T09:18:59.893Z,48.79
2018-09-18T09:20:00.121Z,48.38
2018-09-18T09:21:00.078Z,48.79
2018-09-18T09:21:59.897Z,47.09
2018-09-18T09:23:00.494Z,46.79
2018-09-18T09:23:59.814Z,47.59
2018-09-18T09:24:59.906Z,47.27
2018-09-18T09:25:59.792Z,46.87
2018-09-18T09:26:59.990Z,46.87
2018-09-18T09:27:59.827Z,47.07
2018-09-18T09:28:59.757Z,46.95
2018-09-18T09:30:01.302Z,46.75
2018-09-18T09:30:59.753Z,46.75
2018-09-18T09:31:59.730Z,47.34
2018-09-18T09:32:59.702Z,46.95
2018-09-18T09:33:59.732Z,46.23
2018-09-18T09:34:59.675Z,46.33
2018-09-18T09:35:59.678Z,46.23
2018-09-18T09:36:59.739Z,46.42
2018-09-18T09:37:59.859Z,46.31
2018-09-18T09:38:59.639Z,46.92
2018-09-18T09:39:59.633Z,46.70
2018-09-18T09:41:00.161Z,46.31
2018-09-18T09:42:00.378Z,46.31
2018-09-18T09:42:59.599Z,44.59
2018-09-18T09:43:59.845Z,44.89
2018-09-18T09:44:59.733Z,45.09
2018-09-18T09:45:59.734Z,44.89
2018-09-18T09:46:59.837Z,45.17
2018-09-18T09:47:59.590Z,45.67
2018-09-18T09:48:59.522Z,44.65
2018-09-18T09:49:59.564Z,45.15
2018-09-18T09:50:59.526Z,45.05
2018-09-18T09:51:59.519Z,45.15
2018-09-18T09:52:59.747Z,44.95
2018-09-18T09:53:59.785Z,44.15
2018-09-18T09:54:59.693Z,44.45
2018-09-18T09:55:59.455Z,45.05
2018-09-18T09:56:59.569Z,44.06
2018-09-18T09:57:59.433Z,44.06
2018-09-18T09:58:59.415Z,44.55
2018-09-18T09:59:59.416Z,44.95
2018-09-18T10:01:00.698Z,45.64
2018-09-18T10:01:59.398Z,44.65
2018-09-18T10:02:59.705Z,45.34
2018-09-18T10:03:59.365Z,44.95
2018-09-18T10:04:59.368Z,44.75
2018-09-18T10:05:59.380Z,44.65
2018-09-18T10:06:59.330Z,44.63
2018-09-18T10:07:59.336Z,44.53
2018-09-18T10:08:59.311Z,44.63
2018-09-18T10:09:59.423Z,45.03
2018-09-18T10:10:59.328Z,44.93
2018-09-18T10:11:59.376Z,45.32
2018-09-18T10:12:59.268Z,45.12
2018-09-18T10:13:59.254Z,43.84
2018-09-18T10:14:59.316Z,44.43
2018-09-18T10:15:59.252Z,44.60
2018-09-18T10:16:59.489Z,44.41
2018-09-18T10:17:59.606Z,44.11
2018-09-18T10:18:59.205Z,44.51
2018-09-18T10:19:59.185Z,44.41
2018-09-18T10:20:59.196Z,44.59
2018-09-18T10:21:59.168Z,45.10
2018-09-18T10:22:59.157Z,44.98
2018-09-18T10:23:59.505Z,44.98
2018-09-18T10:24:59.173Z,44.78
2018-09-18T10:25:59.149Z,44.46
2018-09-18T10:26:59.238Z,44.07
2018-09-18T10:27:59.162Z,44.27
2018-09-18T10:28:59.124Z,43.87
2018-09-18T10:29:59.345Z,45.06
2018-09-18T10:30:59.078Z,44.67
2018-09-18T10:31:59.055Z,44.76
2018-09-18T10:32:59.068Z,44.54
2018-09-18T10:33:59.037Z,45.04
2018-09-18T10:34:59.026Z,44.54
2018-09-18T10:35:59.033Z,44.45
2018-09-18T10:37:00.366Z,44.24
2018-09-18T10:37:59.097Z,44.82
2018-09-18T10:38:59.087Z,44.52
2018-09-18T10:39:58.987Z,45.01
2018-09-18T10:40:59.047Z,45.71
2018-09-18T10:41:59.367Z,46.11
2018-09-18T10:42:58.970Z,46.08
2018-09-18T10:43:58.971Z,45.00
2018-09-18T10:44:58.938Z,45.68
2018-09-18T10:45:59.419Z,45.09
2018-09-18T10:46:58.896Z,45.59
2018-09-18T10:47:58.997Z,46.28
2018-09-18T10:48:58.876Z,45.79
2018-09-18T10:49:59.003Z,45.68
2018-09-18T10:50:58.854Z,45.57
2018-09-18T10:51:58.841Z,45.27
2018-09-18T10:52:58.937Z,45.57
2018-09-18T10:53:59.067Z,46.06
2018-09-18T10:54:58.829Z,45.76
2018-09-18T10:55:58.806Z,45.47
2018-09-18T10:56:58.782Z,45.74
2018-09-18T10:57:58.783Z,45.45
2018-09-18T10:58:58.901Z,45.35
2018-09-18T10:59:58.765Z,45.82
2018-09-18T11:01:07.920Z,45.23
2018-09-18T11:01:58.790Z,45.72
2018-09-18T11:02:58.720Z,45.32
2018-09-18T11:03:58.727Z,44.54
2018-09-18T11:04:59.003Z,44.83
2018-09-18T11:05:58.964Z,45.42
2018-09-18T11:06:58.799Z,45.72
2018-09-18T11:07:59.801Z,44.14
2018-09-18T11:08:58.882Z,44.54
2018-09-18T11:09:58.807Z,44.12
2018-09-18T11:11:00.914Z,45.10
2018-09-18T11:11:58.749Z,45.10
2018-09-18T11:12:58.609Z,44.42
2018-09-18T11:13:58.674Z,44.12
2018-09-18T11:14:58.658Z,44.32
2018-09-18T11:16:00.317Z,44.42
2018-09-18T11:16:58.649Z,43.92
2018-09-18T11:17:58.592Z,44.20
2018-09-18T11:18:58.577Z,43.92
2018-09-18T11:19:58.574Z,44.00
2018-09-18T11:20:58.527Z,43.51
2018-09-18T11:21:58.815Z,43.60
2018-09-18T11:22:58.517Z,43.70
2018-09-18T11:23:58.582Z,43.01
2018-09-18T11:24:58.504Z,43.01
2018-09-18T11:25:59.085Z,42.91
2018-09-18T11:26:58.466Z,43.09
2018-09-18T11:27:58.476Z,43.09
2018-09-18T11:28:58.549Z,42.60
2018-09-18T11:29:58.490Z,43.09
2018-09-18T11:30:58.433Z,43.09
2018-09-18T11:31:58.474Z,42.40
2018-09-18T11:32:58.489Z,41.39
2018-09-18T11:33:58.404Z,41.78
2018-09-18T11:34:59.400Z,41.30
2018-09-18T11:35:59.371Z,41.89
2018-09-18T11:36:58.373Z,41.69
2018-09-18T11:37:58.368Z,41.69
2018-09-18T11:38:58.327Z,41.59
2018-09-18T11:39:58.338Z,41.78
2018-09-18T11:40:58.312Z,41.59
2018-09-18T11:41:58.314Z,41.49
2018-09-18T11:42:58.293Z,41.59
2018-09-18T11:43:58.279Z,41.38
2018-09-18T11:44:58.272Z,41.27
2018-09-18T11:45:58.541Z,41.57
2018-09-18T11:46:58.746Z,40.78
2018-09-18T11:47:58.616Z,40.88
2018-09-18T11:48:58.223Z,40.98
2018-09-18T11:49:58.240Z,40.88
2018-09-18T11:50:58.193Z,40.69
2018-09-18T11:51:58.202Z,40.39
2018-09-18T11:52:58.523Z,40.29
2018-09-18T11:53:58.444Z,40.39
2018-09-18T11:55:02.403Z,39.89
2018-09-18T11:55:58.423Z,39.48
2018-09-18T11:56:58.423Z,39.58
2018-09-18T11:57:58.147Z,39.37
2018-09-18T11:58:58.380Z,38.89
2018-09-18T11:59:58.113Z,38.99
2018-09-18T12:00:58.086Z,38.20
2018-09-18T12:01:58.081Z,38.09
2018-09-18T12:02:58.147Z,37.40
2018-09-18T12:03:58.071Z,37.08
2018-09-18T12:04:58.104Z,37.18
2018-09-18T12:05:58.316Z,37.08
2018-09-18T12:06:58.031Z,37.77
2018-09-18T12:07:58.023Z,37.77
2018-09-18T12:08:58.377Z,37.97
2018-09-18T12:09:57.993Z,38.26
2018-09-18T12:10:57.976Z,37.46
2018-09-18T12:11:57.968Z,36.97
2018-09-18T12:12:57.981Z,37.46
2018-09-18T12:13:58.061Z,37.16
2018-09-18T12:14:57.936Z,37.26
2018-09-18T12:15:57.936Z,37.28
2018-09-18T12:16:59.102Z,37.48
2018-09-18T12:17:57.919Z,37.97
2018-09-18T12:18:58.237Z,37.57
2018-09-18T12:19:57.896Z,38.17
2018-09-18T12:20:57.904Z,38.07
2018-09-18T12:21:58.143Z,36.99
2018-09-18T12:22:57.895Z,37.77
2018-09-18T12:23:57.851Z,38.54
2018-09-18T12:24:58.224Z,37.07
2018-09-18T12:25:57.836Z,35.49
2018-09-18T12:26:58.805Z,35.38
2018-09-18T12:27:57.797Z,35.57
2018-09-18T12:28:57.826Z,35.46
2018-09-18T12:29:57.792Z,35.36
2018-09-18T12:30:57.918Z,35.57
2018-09-18T12:31:57.792Z,35.57
2018-09-18T12:32:57.745Z,35.87
2018-09-18T12:33:57.746Z,35.57
2018-09-18T12:34:57.735Z,34.90
2018-09-18T12:35:57.751Z,33.72
2018-09-18T12:36:57.704Z,33.72
2018-09-18T12:37:58.022Z,33.82
2018-09-18T12:38:57.962Z,33.82
2018-09-18T12:39:57.669Z,33.62
2018-09-18T12:40:57.674Z,34.61
2018-09-18T12:41:57.762Z,34.82
2018-09-18T12:42:57.640Z,34.72
2018-09-18T12:43:57.648Z,34.63
2018-09-18T12:44:57.648Z,34.53
2018-09-18T12:45:58.497Z,33.84
2018-09-18T12:46:57.747Z,33.54
2018-09-18T12:47:57.681Z,33.84
2018-09-18T12:48:57.668Z,34.63
2018-09-18T12:49:58.189Z,34.13
2018-09-18T12:50:57.613Z,34.92
2018-09-18T12:51:57.570Z,33.64
2018-09-18T12:52:57.807Z,33.53
2018-09-18T12:53:57.549Z,33.33